NCAR-RAP Real-Time Weather Data

Output produced by METARs form (17 October 2018  15:44 UTC)
found at http://weather.rap.ucar.edu/surface/
 
RJSY 171200Z 08003KT 9999 FEW035 BKN045 13/09 Q1016
RJSY 171100Z 09003KT 9999 SCT035 BKN045 13/09 Q1015
RJSY 171000Z VRB02KT 9999 FEW030 BKN040 14/08 Q1015
RJSY 170900Z 33004KT 290V020 9999 FEW025 SCT035 BKN050 15/08 Q1014
RJSY 170800Z 33005KT 290V030 9999 FEW025 SCT030 BKN050 15/08 Q1014
RJSY 170700Z 35004KT 270V030 9999 FEW030 SCT045 15/08 Q1013
RJSY 170600Z 35006KT 310V050 9999 FEW030 BKN050 16/08 Q1013
RJSY 170500Z 35006KT 290V030 9999 FEW030 BKN050 16/09 Q1012
RJSY 170400Z 34006KT 290V030 9999 FEW030 BKN050 17/09 Q1012
RJSY 170300Z 30003KT 240V060 9999 FEW030 SCT050 BKN150 17/09 Q1012
RJSY 170200Z 36003KT 300V060 9999 -SHRA FEW020 SCT050 BKN080 16/09 Q1013
RJSY 170100Z 33003KT 280V030 9999 FEW025 SCT080 BKN100 16/08 Q1013
RJSY 170000Z VRB01KT 9999 FEW030 SCT050 BKN100 15/11 Q1013
RJSY 162300Z VRB02KT 9999 FEW020 SCT080 BKN100 13/10 Q1012
RJSY 162200Z 09004KT 030V140 9999 FEW030 BKN130 13/11 Q1012
RJSY 161200Z 09005KT 9999 FEW025 SCT050 BKN070 13/11 Q1012
RJSY 161100Z 09005KT 9999 FEW025 SCT080 BKN/// 13/11 Q1012
RJSY 161000Z 09003KT 9999 FEW025 BKN/// 14/11 Q1013
RJSY 160900Z 11003KT 9999 FEW025 BKN/// 15/12 Q1013
RJSY 160800Z 06003KT 9999 FEW025 BKN/// 16/11 Q1013
RJSY 160700Z 34003KT 310V020 9999 FEW025 SCT070 BKN/// 18/12 Q1013
RJSY 160600Z 35003KT 260V040 9999 FEW025 SCT070 BKN100 18/12 Q1013
RJSY 160500Z 33006KT 280V020 9999 FEW030 SCT050 BKN080 19/13 Q1013
RJSY 160400Z 30006KT 260V350 9999 VCSH FEW030 SCT040 BKN070 19/13 Q1013
RJSY 160300Z VRB03KT 9999 FEW030 SCT040 19/11 Q1013
RJSY 160200Z VRB02KT 9999 FEW010 BKN/// 18/12 Q1014
RJSY 160100Z 14003KT 090V190 9999 FEW010 BKN/// 17/12 Q1015
RJSY 160000Z 10005KT 9999 FEW010 BKN/// 14/11 Q1015
RJSY 152300Z 11005KT 9999 FEW010 BKN080 BKN/// 13/11 Q1016
RJSY 152200Z 08005KT 9999 FEW010 SCT100 BKN/// 12/11 Q1016
RJSY 151200Z 10002KT 9999 FEW030 13/10 Q1017
RJSY 151100Z 12002KT 9999 FEW030 13/10 Q1017
RJSY 151000Z 08004KT 9999 FEW020 SCT030 BKN040 15/11 Q1017
RJSY 150900Z 05003KT 9999 FEW020 BKN035 17/11 Q1017
RJSY 150800Z 07001KT 9999 FEW030 17/12 Q1017
RJSY 150700Z 02001KT 9999 FEW030 SCT070 19/10 Q1016
RJSY 150600Z 05004KT 010V110 9999 FEW030 SCT080 19/11 Q1016
RJSY 150500Z 09005KT 060V130 9999 FEW020 SCT180 BKN/// 19/12 Q1017
RJSY 150400Z 09005KT 9999 FEW020 BKN070 BKN/// 18/11 Q1017